NCAR-RAP Real-Time Weather Data

Output produced by METARs form (21 May 2019  11:06 UTC)
found at http://weather.rap.ucar.edu/surface/
 
RJFR 211000Z 31009KT CAVOK 19/06 Q1006
RJFR 210900Z 31010KT CAVOK 21/08 Q1006
RJFR 210800Z 32011KT CAVOK 21/08 Q1006
RJFR 210700Z 32012KT CAVOK 21/07 Q1006
RJFR 210600Z 31014KT CAVOK 21/07 Q1006
RJFR 210500Z 30012KT CAVOK 21/07 Q1006
RJFR 210400Z 30013KT CAVOK 21/07 Q1006
RJFR 210300Z 30012KT CAVOK 21/07 Q1006
RJFR 210200Z 30013KT 9999 FEW030 BKN/// 20/07 Q1007
RJFR 210100Z 31014KT 9999 FEW030 20/08 Q1007
RJFR 210000Z 31012KT 9999 FEW030 19/07 Q1007
RJFR 202300Z 32006KT 280V010 9999 FEW030 BKN/// 18/08 Q1007
RJFR 202200Z 35005KT 320V020 9999 FEW030 BKN/// 17/07 Q1007
RJFR 202100Z 32007KT 9999 FEW030 BKN/// 16/06 Q1007
RJFR 202000Z 31005KT 9999 FEW030 BKN/// 15/10 Q1006
RJFR 201900Z 33005KT 9999 FEW030 BKN045 BKN/// 17/08 Q1006
RJFR 201800Z 33009KT 9999 FEW035 BKN050 BKN/// 18/09 Q1006
RJFR 201700Z 28010KT 9999 FEW040 BKN/// 18/10 Q1006
RJFR 201600Z 26011KT 9999 FEW040 BKN/// 17/11 Q1005
RJFR 201500Z 26012KT 9999 FEW040 SCT150 BKN/// 17/11 Q1005
RJFR 201400Z 25010KT 200V270 9999 FEW040 SCT150 BKN/// 17/10 Q1005
RJFR 201300Z 27015KT 9999 FEW040 SCT150 BKN/// 18/11 Q1005
RJFR 201200Z 26014KT 9999 FEW040 BKN150 18/11 Q1004
RJFR 201100Z 25010KT 9999 FEW020 SCT045 BKN090 19/10 Q1004
RJFR 201000Z 27010KT 9999 FEW005 SCT020 BKN030 19/16 Q1003
RJFR 200900Z 27005KT 9999 -RA FEW005 BKN090 BKN130 20/16 Q1003
RJFR 200833Z VRB02KT 9999 -SHRA FEW005 BKN025 BKN090 20/16 Q1003 RMK 1ST005 5CU025 7AC090 A2962
RJFR 200800Z 29010KT 280V010 9999 -SHRA FEW005 BKN040 BKN080 20/16 Q1003
RJFR 200725Z 30006KT 9999 -SHRA FEW005 SCT020 BKN030 20/16 Q1003 RMK 1ST005 3CU020 5CU030 A2963
RJFR 200711Z 27008KT 8000 R18/1800U SHRA FEW005 SCT010 BKN020 19/17 Q1003 RMK 1ST005 4CU010 6CU020 A2963
RJFR 200706Z 27008KT 3000 R18/1700N +SHRA FEW005 SCT010 BKN015 19/17 Q1003 RMK 1ST005 4CU010 6CU015 A2962
RJFR 200700Z 29009KT 250V310 3000 R18/1300VP1800U SHRA FEW005 BKN018 BKN030 19/17 Q1003
RJFR 200637Z 29010KT 6000 SHRA FEW005 SCT015 BKN025 19/17 Q1003 RMK 1ST005 3CU015 7CU025 A2964
RJFR 200622Z 29012KT 3000 R18/1300VP1800U +SHRA FEW005 BKN015 BKN030 19/17 Q1003 RMK 1ST005 5CU015 7CU030 A2964
RJFR 200613Z 29014KT 6000 R18/1200VP1800D SHRA FEW005 BKN015 BKN030 19/17 Q1003 RMK 1ST005 5CU015 7CU030 A2963
RJFR 200600Z 29012KT 9999 -SHRA FEW008 SCT015 BKN030 19/17 Q1003
RJFR 200543Z 30012KT 9999 -SHRA FEW005 SCT015 BKN030 19/17 Q1003 RMK 1ST005 3CU015 7CU030 A2962
RJFR 200521Z 31015KT 8000 R18/1400VP1800U SHRA FEW005 SCT010 BKN025 19/17 Q1002 RMK 1ST005 4CU010 7CU025 A2961
RJFR 200500Z 29017KT 2000 R18/0800VP1800D +SHRA FEW007 BKN010 BKN015 20/17 Q1003
RJFR 200448Z 30014KT 7000 SHRA FEW007 BKN010 BKN015 20/17 Q1003 RMK 1ST007 5CU010 7CU015 A2963
RJFR 200439Z 31013KT 6000 -SHRA FEW007 BKN010 BKN025 20/18 Q1003 RMK 1ST007 5CU010 7CU025 A2963
RJFR 200400Z 32009KT 300V360 9999 FEW004 BKN006 BKN025 20/17 Q1003
RJFR 200329Z 36003KT 320V030 9999 SCT004 BKN006 BKN020 20/18 Q1004 RMK 3ST004 5ST006 7CU020 A2966
RJFR 200300Z VRB06KT 9999 FEW006 SCT025 BKN040 20/17 Q1004
RJFR 200200Z 09012KT 040V130 9999 FEW005 BKN045 BKN100 19/17 Q1004
RJFR 200129Z 10012KT 020V170 8000 -SHRA FEW006 SCT012 BKN030 19/17 Q1005 RMK 1ST006 4ST012 7CU030 A2968
RJFR 200117Z 09011KT 010V140 4500 -SHRA BR FEW012 BKN030 19/17 Q1005 RMK 2ST012 7CU030 A2969
RJFR 200100Z 09012KT 040V160 9999 -SHRA FEW010 BKN035 19/16 Q1005
RJFR 200000Z 10012KT 040V150 9999 FEW010 SCT070 BKN/// 20/17 Q1005
RJFR 192300Z 09013KT 050V110 9999 -SHRA FEW010 SCT025 BKN040 19/16 Q1006
RJFR 192200Z 09011KT 040V150 9999 -SHRA FEW010 SCT025 BKN040 19/16 Q1006
RJFR 192100Z VRB10KT 9999 -SHRA FEW008 BKN025 BKN040 19/16 Q1006
RJFR 192000Z VRB07KT 9999 FEW010 BKN025 BKN040 19/16 Q1007
RJFR 191900Z VRB07KT 9999 -SHRA FEW015 SCT030 BKN040 19/16 Q1007
RJFR 191800Z VRB08KT 9999 -SHRA FEW015 SCT030 BKN040 20/17 Q1008
RJFR 191700Z VRB09KT 9999 -SHRA FEW015 SCT030 BKN040 19/16 Q1009
RJFR 191600Z 09012KT 050V120 9999 FEW015 SCT030 BKN040 19/16 Q1009
RJFR 191500Z 08018KT 9999 FEW015 BKN030 BKN040 19/16 Q1010
RJFR 191400Z 09014KT 060V140 9999 -SHRA FEW015 BKN030 BKN040 19/16 Q1010
RJFR 191324Z 09015G25KT 060V130 9999 VCSH FEW015 SCT030 BKN040 19/16 Q1011 RMK 1CU015 4CU030 6CU040 A2986
RJFR 191300Z 10015KT 080V150 9999 -SHRA FEW015 SCT030 BKN040 19/16 Q1011
RJFR 191200Z 10013KT 050V130 9999 FEW010 SCT020 BKN030 20/17 Q1011
RJFR 191100Z 10012KT 060V140 9999 -SHRA FEW010 SCT020 BKN030 19/16 Q1011
RJFR 191000Z 10011KT 030V190 9999 FEW008 BKN020 BKN030 20/16 Q1010
RJFR 190900Z 10012G22KT 010V150 6000 -SHRA FEW015 SCT025 BKN040 19/17 Q1010
RJFR 190800Z VRB09G20KT 8000 -SHRA FEW015 BKN025 BKN035 19/17 Q1010
RJFR 190700Z VRB10G20KT 9999 FEW015 BKN025 BKN035 20/16 Q1010
RJFR 190600Z VRB08G18KT 9999 -SHRA FEW010 BKN030 BKN100 19/16 Q1011
RJFR 190500Z VRB07G17KT 9999 -SHRA FEW010 SCT020 BKN030 19/16 Q1012
RJFR 190400Z VRB07KT 9999 -SHRA FEW010 SCT020 BKN030 20/17 Q1012
RJFR 190300Z VRB10KT 9999 FEW015 SCT030 BKN060 20/16 Q1013
RJFR 190200Z 11011KT 070V160 9999 -SHRA FEW010 SCT025 BKN035 20/16 Q1013
RJFR 190100Z 10013KT 040V150 9999 -SHRA FEW010 SCT020 BKN035 20/15 Q1013
RJFR 190000Z 10013KT 040V170 9999 -SHRA FEW020 BKN030 BKN/// 19/15 Q1013